Sunday, September 23, 2018, 2:34 AM GMT
Back to Local

CWFQ, Frelighsburg

Location: , , Canada Lat: 45.05
Local Time: 2:34 AM GMT ( 2:34 GMT) Lon: -72.833
Time Zone: GMT Elev: 498 ft

Show me the last for .
Show Coded

Time T Td Feel RH Dir Speed Gust Alt SLP Vis Weather Sky Remarks
2018-09-23 02:00 45 41 - 84 180° 2 - - 30.23 0 None
2018-09-23 01:00 46 40 - 76 200° 1 - - 30.23 0 None
2018-09-23 00:00 48 39 - 72 210° 2 - - 30.23 0 None
2018-09-22 23:00 49 40 - 72 210° 1 - - 30.21 0 None
2018-09-22 22:00 53 38 - 55 280° 2 - - 30.20 0 None
2018-09-22 21:00 55 39 - 55 350° 5 - - 30.19 0 None
2018-09-22 20:00 56 37 - 49 340° 6 - - 30.19 0 None
2018-09-22 19:00 54 39 - 56 320° 3 - - 30.20 0 None
2018-09-22 18:00 53 37 - 54 330° 5 - - 30.21 0 None
2018-09-22 17:00 51 37 - 59 340° 8 - - 30.21 0 None
2018-09-22 16:00 54 36 - 50 340° 9 18 - 30.20 0 Peak wind: 19 mph (17 kts) from 330° at 57 min
2018-09-22 15:00 53 35 - 51 340° 9 - - 30.20 0 Peak wind: 20 mph (18 kts) from 350° at 02 min
2018-09-22 14:00 51 34 - 52 340° 12 21 - 30.18 0 Peak wind: 20 mph (18 kts) from 320° at 56 min
2018-09-22 13:00 50 38 - 63 340° 10 - - 30.15 0 None
2018-09-22 12:00 49 38 43 63 340° 9 20 - 30.13 0 Peak wind: 20 mph (18 kts) from 350° at 30 min
Pressure rising rapidly
2018-09-22 11:00 51 41 - 69 330° 9 18 - 30.06 0 Pressure rising rapidly
2018-09-22 10:00 55 45 - 69 330° 12 20 - 29.98 0 Peak wind: 19 mph (17 kts) from 330° at 54 min
Pressure rising rapidly
2018-09-22 09:00 57 45 - 64 300° 6 - - 29.91 0 Pressure rising rapidly
1-hr Precip Total: 0.01"
2018-09-22 08:00 60 47 - 61 300° 9 21 - 29.84 0 Peak wind: 23 mph (20 kts) from 300° at 35 min
2018-09-22 07:00 62 53 - 71 300° 5 - - 29.79 0 Peak wind: 20 mph (18 kts) from 230° at 21 min
2018-09-22 06:00 64 56 - 75 280° 6 - - 29.75 0 None
2018-09-22 05:00 64 64 - 100 200° 6 - - 29.70 0 None
2018-09-22 04:00 65 64 - 95 180° 6 - - 29.69 0 None
2018-09-22 03:00 65 64 - 96 200° 7 17 - 29.68 0 Peak wind: 23 mph (20 kts) from 320° at 06 min
1-hr Precip Total: 0.27"

Support USWX by starting your Amazon purchase here.